Flight Track Log - Related Links

Times and Time Zones

All times are in EDT time to prevent confusion due to time zone crossing. See the KFS724 flight status page for this flight to view local times or setup timezone preferences in your user account.

Time Position Orientation Groundspeed Altitude Reporting Facility
EDT Latitude Longitude Course Direction KTS MPH feet Rate Location/Type
Mon 03:33:52 PM 42.2217 -83.5497 241° Southwest 170 196 1,400  Level Cleveland Center
Mon 03:35:12 PM 42.1883 -83.6322 241° Southwest 233 268 3,700 1,882 Climbing Cleveland Center
Mon 03:36:25 PM 42.2064 -83.7342 283° West 264 304 6,200 2,436 Climbing Cleveland Center
Mon 03:37:25 PM 42.2519 -83.8206 305° West 270 311 9,100 2,300 Climbing Cleveland Center
Mon 03:38:25 PM 42.2972 -83.9128 304° West 283 326 10,800 1,750 Climbing Cleveland Center
Mon 03:39:25 PM 42.3483 -84.0222 302° West 314 361 12,600 2,100 Climbing Cleveland Center
Mon 03:40:25 PM 42.4011 -84.1403 301° West 348 400 15,000 2,300 Climbing Cleveland Center
Mon 03:41:25 PM 42.4325 -84.2686 288° West 368 423 17,200 1,750 Climbing Cleveland Center
Mon 03:42:25 PM 42.4317 -84.4150 270° West 374 430 18,500 1,800 Climbing Cleveland Center
Mon 03:43:25 PM 42.4372 -84.5589 273° West 380 437 20,800 1,811 Climbing Cleveland Center
Mon 03:44:11 PM 42.4417 -84.6878 273° West 393 452 21,700 1,278 Climbing Chicago Center
Mon 03:45:13 PM 42.4464 -84.8442 272° West 409 471 23,100 1,500 Climbing Chicago Center
Mon 03:46:15 PM 42.4494 -85.0025 272° West 419 482 24,800 1,415 Climbing Chicago Center
Mon 03:47:16 PM 42.4525 -85.1619 272° West 423 487 26,000 1,171 Climbing Chicago Center
Mon 03:48:18 PM 42.4553 -85.3231 271° West 428 493 27,200 1,161 Climbing Chicago Center
Mon 03:49:20 PM 42.4592 -85.4858 272° West 432 497 28,400 1,016 Climbing Chicago Center
Mon 03:50:22 PM 42.4608 -85.6494 271° West 433 498 29,300 1,024 Climbing Chicago Center
Mon 03:51:23 PM 42.4522 -85.8494 267° West 447 514 30,500 1,024 Climbing Chicago Center
Mon 03:52:25 PM 42.3822 -85.9886 236° Southwest 450 518 31,400 774 Climbing Chicago Center
Mon 03:53:27 PM 42.3147 -86.1297 237° Southwest 446 513 32,100 774 Climbing Chicago Center
Mon 03:54:29 PM 42.2403 -86.2803 236° Southwest 450 518 33,000 435 Climbing Chicago Center
Mon 03:55:31 PM 42.1697 -86.4189 236° Southwest 451 519 33,000  Level Chicago Center
Mon 03:56:32 PM 42.0989 -86.5586 236° Southwest 453 521 33,000  Level Chicago Center
Mon 03:57:34 PM 42.0228 -86.7081 236° Southwest 451 519 33,000 194 Level Chicago Center
Mon 03:58:36 PM 41.9519 -86.8467 236° Southwest 450 518 33,400 484 Climbing Chicago Center
Mon 03:59:38 PM 41.8931 -86.9919 241° Southwest 446 513 34,000 290 Climbing Chicago Center
Mon 04:00:40 PM 41.8408 -87.1392 245° Southwest 439 505 34,000  Level Chicago Center
Mon 04:01:42 PM 41.7861 -87.2822 243° Southwest 434 499 34,000  Level Chicago Center
Mon 04:02:44 PM 41.7208 -87.4500 243° Southwest 427 491 34,000  Level Chicago Center
Mon 04:03:45 PM 41.6675 -87.5889 243° Southwest 425 489 34,000  Level Chicago Center
Mon 04:04:47 PM 41.6153 -87.7269 243° Southwest 421 484 34,000  Level Chicago Center
Mon 04:05:49 PM 41.5622 -87.8633 243° Southwest 418 481 34,000  Level Chicago Center
Mon 04:06:51 PM 41.5083 -87.9981 242° Southwest 418 481 34,000  Level Chicago Center
Mon 04:07:53 PM 41.4508 -88.1500 243° Southwest 415 478 34,000  Level Chicago Center
Mon 04:08:55 PM 41.3986 -88.2806 242° Southwest 402 463 34,000  Level Chicago Center
Mon 04:09:57 PM 41.3453 -88.4142 242° Southwest 408 470 34,000  Level Chicago Center
Mon 04:10:59 PM 41.2803 -88.5794 242° Southwest 421 484 34,000  Level Chicago Center
Mon 04:12:01 PM 41.2250 -88.7172 242° Southwest 424 488 34,000  Level Chicago Center
Mon 04:13:03 PM 41.1700 -88.8550 242° Southwest 424 488 34,000  Level Chicago Center
Mon 04:14:05 PM 41.1164 -88.9925 243° Southwest 422 486 34,000  Level Chicago Center
Mon 04:15:07 PM 41.0603 -89.1289 241° Southwest 423 487 34,000  Level Chicago Center
Mon 04:16:09 PM 41.0031 -89.2692 242° Southwest 418 481 34,000  Level Chicago Center
Mon 04:17:11 PM 40.9481 -89.4022 241° Southwest 415 478 34,000  Level Chicago Center
Mon 04:18:13 PM 40.8856 -89.5536 241° Southwest 410 472 34,000  Level Chicago Center
Mon 04:19:15 PM 40.8314 -89.6856 242° Southwest 409 471 34,000  Level Chicago Center
Mon 04:20:17 PM 40.7789 -89.8167 242° Southwest 406 467 34,000  Level Chicago Center
Mon 04:21:19 PM 40.7267 -89.9472 242° Southwest 403 464 34,000  Level Chicago Center
Mon 04:22:21 PM 40.6606 -90.1019 241° Southwest 405 466 34,000  Level Chicago Center
Mon 04:23:23 PM 40.6081 -90.2314 242° Southwest 404 465 34,000  Level Chicago Center
Mon 04:24:25 PM 40.5489 -90.3608 239° Southwest 412 474 34,000  Level Chicago Center
Mon 04:25:27 PM 40.4933 -90.4911 241° Southwest 410 472 34,000  Level Chicago Center
Mon 04:26:29 PM 40.4381 -90.6208 241° Southwest 410 472 34,000  Level Chicago Center
Mon 04:27:31 PM 40.3825 -90.7533 241° Southwest 413 475 34,000  Level Chicago Center
Mon 04:28:29 PM 40.3261 -90.8819 240° Southwest 410 472 34,000  Level Kansas City Center
Mon 04:29:29 PM 40.2692 -91.0147 241° Southwest 413 475 34,000  Level Kansas City Center
Mon 04:30:33 PM 40.2136 -91.1447 241° Southwest 413 475 34,000  Level Kansas City Center
Mon 04:31:34 PM 40.1453 -91.2997 240° Southwest 412 474 34,000  Level Kansas City Center
Mon 04:32:38 PM 40.0886 -91.4294 240° Southwest 413 475 34,000  Level Kansas City Center
Mon 04:33:38 PM 40.0328 -91.5583 241° Southwest 412 474 34,000  Level Kansas City Center
Mon 04:34:42 PM 39.9739 -91.6894 240° Southwest 418 481 34,000  Level Kansas City Center
Mon 04:35:42 PM 39.9172 -91.8206 241° Southwest 418 481 34,000  Level Kansas City Center
Mon 04:36:46 PM 39.8589 -91.9522 240° Southwest 419 482 34,000  Level Kansas City Center
Mon 04:37:47 PM 39.7878 -92.1108 240° Southwest 422 486 34,000  Level Kansas City Center
Mon 04:38:48 PM 39.7300 -92.2394 240° Southwest 418 481 34,000  Level Kansas City Center
Mon 04:39:52 PM 39.6722 -92.3681 240° Southwest 415 478 34,000  Level Kansas City Center
Mon 04:40:53 PM 39.6147 -92.4969 240° Southwest 414 476 34,000  Level Kansas City Center
Mon 04:41:54 PM 39.5583 -92.6211 240° Southwest 408 470 34,000  Level Kansas City Center
Mon 04:42:57 PM 39.5011 -92.7453 239° Southwest 404 465 34,000  Level Kansas City Center
Mon 04:43:58 PM 39.4336 -92.8914 239° Southwest 400 460 34,000  Level Kansas City Center
Mon 04:45:02 PM 39.3764 -93.0147 239° Southwest 401 461 34,000  Level Kansas City Center
Mon 04:46:02 PM 39.3181 -93.1381 239° Southwest 402 463 34,000  Level Kansas City Center
Mon 04:47:06 PM 39.2622 -93.2622 240° Southwest 402 463 34,000  Level Kansas City Center
Mon 04:48:07 PM 39.2047 -93.3861 239° Southwest 404 465 34,000  Level Kansas City Center
Mon 04:49:08 PM 39.1417 -93.5233 239° Southwest 403 464 34,000  Level Kansas City Center
Mon 04:50:09 PM 39.0772 -93.6608 239° Southwest 402 463 34,000  Level Kansas City Center
Mon 04:51:13 PM 39.0219 -93.7778 239° Southwest 400 460 34,000  Level Kansas City Center
Mon 04:52:14 PM 38.9567 -93.9150 239° Southwest 403 464 34,000  Level Kansas City Center
Mon 04:53:18 PM 38.9006 -94.0339 239° Southwest 405 466 34,000  Level Kansas City Center
Mon 04:54:19 PM 38.8444 -94.1517 239° Southwest 404 465 34,000  Level Kansas City Center
Mon 04:55:20 PM 38.7767 -94.2886 238° Southwest 405 466 34,000  Level Kansas City Center
Mon 04:56:23 PM 38.6989 -94.3853 224° Southwest 408 470 34,000  Level Kansas City Center
Mon 04:57:25 PM 38.6072 -94.4989 224° Southwest 407 468 34,000  Level Kansas City Center
Mon 04:58:28 PM 38.5261 -94.5908 222° Southwest 409 471 34,000  Level Kansas City Center
Mon 04:59:29 PM 38.4144 -94.6747 210° Southwest 415 478 34,000  Level Kansas City Center
Mon 05:00:30 PM 38.3164 -94.7453 209° Southwest 419 482 34,000  Level Kansas City Center
Mon 05:01:32 PM 38.2533 -94.8744 238° Southwest 392 451 34,000  Level Kansas City Center
Mon 05:02:35 PM 38.1997 -94.9894 239° Southwest 390 449 34,000  Level Kansas City Center
Mon 05:03:38 PM 38.1453 -95.1047 239° Southwest 394 453 34,000  Level Kansas City Center
Mon 05:04:39 PM 38.0814 -95.2403 239° Southwest 396 456 34,000  Level Kansas City Center
Mon 05:05:41 PM 38.0256 -95.3550 238° Southwest 398 458 34,000  Level Kansas City Center
Mon 05:06:44 PM 37.9631 -95.4872 239° Southwest 394 453 34,000  Level Kansas City Center
Mon 05:07:46 PM 37.9050 -95.6061 238° Southwest 390 449 34,000  Level Kansas City Center
Mon 05:08:46 PM 37.8486 -95.7214 238° Southwest 386 444 34,000  Level Kansas City Center
Mon 05:09:50 PM 37.7936 -95.8372 239° Southwest 387 445 34,000  Level Kansas City Center
Mon 05:10:51 PM 37.7386 -95.9514 239° Southwest 383 441 34,000  Level Kansas City Center
Mon 05:11:52 PM 37.6731 -96.0836 238° Southwest 375 432 34,000  Level Kansas City Center
Mon 05:12:55 PM 37.6181 -96.1933 238° Southwest 371 427 34,000  Level Kansas City Center
Mon 05:13:56 PM 37.5644 -96.3033 238° Southwest 370 426 34,000  Level Kansas City Center
Mon 05:15:01 PM 37.5114 -96.4125 239° Southwest 368 423 34,000  Level Kansas City Center
Mon 05:16:01 PM 37.4519 -96.5325 238° Southwest 371 427 34,000  Level Kansas City Center
Mon 05:17:05 PM 37.3964 -96.6450 238° Southwest 374 430 34,000  Level Kansas City Center
Mon 05:18:06 PM 37.3403 -96.7575 238° Southwest 377 434 34,000  Level Kansas City Center
Mon 05:19:07 PM 37.2836 -96.8706 238° Southwest 380 437 34,000  Level Kansas City Center
Mon 05:20:10 PM 37.2272 -96.9842 238° Southwest 381 438 34,000  Level Kansas City Center
Mon 05:21:10 PM 37.1700 -97.0975 238° Southwest 382 440 34,000  Level Kansas City Center
Mon 05:22:14 PM 37.0994 -97.2356 237° Southwest 388 447 34,000  Level Kansas City Center
Mon 05:23:15 PM 37.0403 -97.3514 237° Southwest 390 449 34,000  Level Kansas City Center
Mon 05:24:16 PM 36.9811 -97.4672 237° Southwest 393 452 34,000  Level Kansas City Center
Mon 05:25:20 PM 36.9217 -97.5842 238° Southwest 395 455 34,000  Level Kansas City Center
Mon 05:26:21 PM 36.8622 -97.7028 238° Southwest 399 459 34,000  Level Kansas City Center
Mon 05:27:24 PM 36.7972 -97.8239 236° Southwest 398 458 34,000  Level Kansas City Center
Mon 05:28:26 PM 36.7383 -97.9397 238° Southwest 395 455 34,000  Level Kansas City Center
Mon 05:29:27 PM 36.6789 -98.0536 237° Southwest 393 452 34,000  Level Kansas City Center
Mon 05:30:30 PM 36.6197 -98.1658 237° Southwest 389 448 34,000  Level Kansas City Center
Mon 05:31:31 PM 36.5494 -98.3003 237° Southwest 385 443 34,000  Level Kansas City Center
Mon 05:32:34 PM 36.4933 -98.4131 238° Southwest 384 442 34,000  Level Kansas City Center
Mon 05:33:35 PM 36.4353 -98.5222 237° Southwest 381 438 34,000  Level Kansas City Center
Mon 05:34:37 PM 36.3761 -98.6342 237° Southwest 383 441 34,000  Level Kansas City Center
Mon 05:35:37 PM 36.3169 -98.7433 236° Southwest 381 438 34,000  Level Kansas City Center
Mon 05:36:41 PM 36.2600 -98.8528 237° Southwest 379 436 34,000  Level Kansas City Center
Mon 05:37:41 PM 36.1925 -98.9806 237° Southwest 381 438 34,000  Level Kansas City Center
Mon 05:38:45 PM 36.1350 -99.0883 237° Southwest 379 436 34,000  Level Kansas City Center
Mon 05:39:46 PM 36.0786 -99.1978 238° Southwest 378 435 34,000  Level Kansas City Center
Mon 05:40:50 PM 36.0183 -99.3117 237° Southwest 385 443 34,000  Level Kansas City Center
Mon 05:41:51 PM 35.9544 -99.4236 235° Southwest 396 456 34,000  Level Kansas City Center
Mon 05:42:52 PM 35.8797 -99.5614 236° Southwest 401 461 34,000  Level Kansas City Center
Mon 05:43:38 PM 35.8425 -99.6300 236° Southwest 402 463 34,000  Level Albuquerque Center
Mon 05:44:40 PM 35.7689 -99.7656 236° Southwest 398 458 34,000  Level Albuquerque Center
Mon 05:45:41 PM 35.7064 -99.8789 236° Southwest 398 458 34,000  Level Albuquerque Center
Mon 05:46:43 PM 35.6464 -99.9928 237° Southwest 398 458 34,000  Level Albuquerque Center
Mon 05:47:45 PM 35.5844 -100.1056 236° Southwest 397 457 34,000  Level Albuquerque Center
Mon 05:48:46 PM 35.5217 -100.2181 236° Southwest 398 458 34,000  Level Albuquerque Center
Mon 05:49:48 PM 35.4592 -100.3308 236° Southwest 398 458 34,000  Level Albuquerque Center
Mon 05:50:50 PM 35.3972 -100.4431 236° Southwest 397 457 34,000  Level Albuquerque Center
Mon 05:51:52 PM 35.3242 -100.5758 236° Southwest 392 451 34,000  Level Albuquerque Center
Mon 05:52:54 PM 35.2697 -100.6719 235° Southwest 388 447 34,000  Level Albuquerque Center
Mon 05:53:55 PM 35.2069 -100.7814 235° Southwest 391 450 34,000  Level Albuquerque Center
Mon 05:54:57 PM 35.1461 -100.8917 236° Southwest 391 450 34,000  Level Albuquerque Center
Mon 05:55:59 PM 35.0706 -101.0236 235° Southwest 394 453 34,000  Level Albuquerque Center
Mon 05:57:00 PM 35.0078 -101.1344 235° Southwest 395 455 34,000  Level Albuquerque Center
Mon 05:58:02 PM 34.9433 -101.2456 235° Southwest 398 458 34,000  Level Albuquerque Center
Mon 05:59:04 PM 34.8800 -101.3589 236° Southwest 400 460 34,000  Level Albuquerque Center
Mon 06:00:06 PM 34.8147 -101.4706 235° Southwest 402 463 34,000  Level Albuquerque Center
Mon 06:01:07 PM 34.7489 -101.5831 235° Southwest 404 465 34,000  Level Albuquerque Center
Mon 06:02:09 PM 34.6844 -101.6972 236° Southwest 407 468 34,000  Level Albuquerque Center
Mon 06:03:11 PM 34.6189 -101.8111 235° Southwest 409 471 34,000  Level Albuquerque Center
Mon 06:04:13 PM 34.5408 -101.9458 235° Southwest 406 467 34,000  Level Albuquerque Center
Mon 06:05:14 PM 34.4753 -102.0578 235° Southwest 407 468 34,000  Level Albuquerque Center
Mon 06:06:16 PM 34.4081 -102.1706 234° Southwest 411 473 34,000  Level Albuquerque Center
Mon 06:07:18 PM 34.3411 -102.2833 234° Southwest 412 474 34,000  Level Albuquerque Center
Mon 06:07:54 PM 34.3022 -102.3528 236° Southwest 413 475 34,000  Level Albuquerque Center
Mon 06:08:56 PM 34.2350 -102.4667 234° Southwest 416 479 34,000  Level Albuquerque Center
Mon 06:09:58 PM 34.1644 -102.5856 234° Southwest 415 478 34,000  Level Albuquerque Center
Mon 06:10:59 PM 34.0989 -102.6997 235° Southwest 415 478 34,000  Level Albuquerque Center
Mon 06:12:01 PM 34.0331 -102.8108 234° Southwest 411 473 34,000  Level Albuquerque Center
Mon 06:13:03 PM 33.9661 -102.9228 234° Southwest 412 474 34,000  Level Albuquerque Center
Mon 06:14:04 PM 33.8875 -103.0542 234° Southwest 407 468 34,000  Level Albuquerque Center
Mon 06:15:06 PM 33.8225 -103.1647 235° Southwest 407 468 34,000  Level Albuquerque Center
Mon 06:16:08 PM 33.7542 -103.2767 234° Southwest 410 472 34,000  Level Albuquerque Center
Mon 06:17:09 PM 33.6881 -103.3875 234° Southwest 412 474 34,000  Level Albuquerque Center
Mon 06:18:11 PM 33.6211 -103.4981 234° Southwest 411 473 34,000  Level Albuquerque Center
Mon 06:19:13 PM 33.5547 -103.6075 234° Southwest 410 472 34,000  Level Albuquerque Center
Mon 06:20:14 PM 33.4792 -103.7336 234° Southwest 409 471 34,000  Level Albuquerque Center
Mon 06:21:16 PM 33.4078 -103.8517 234° Southwest 408 470 34,000  Level Albuquerque Center
Mon 06:22:18 PM 33.3381 -103.9606 233° Southwest 410 472 34,000  Level Albuquerque Center
Mon 06:23:19 PM 33.2617 -104.0639 229° Southwest 413 475 34,000  Level Albuquerque Center
Mon 06:24:21 PM 33.1808 -104.1778 230° Southwest 415 478 34,000  Level Albuquerque Center
Mon 06:25:23 PM 33.1044 -104.2831 229° Southwest 418 481 34,000 -339 Level Albuquerque Center
Mon 06:26:25 PM 33.0269 -104.3883 229° Southwest 420 483 33,300 -927 Descending Albuquerque Center
Mon 06:27:26 PM 32.9397 -104.5086 229° Southwest 441 507 32,100 -976 Descending Albuquerque Center
Mon 06:28:28 PM 32.8606 -104.6200 230° Southwest 440 506 31,300 -976 Descending Albuquerque Center
Mon 06:29:29 PM 32.7819 -104.7267 229° Southwest 430 495 30,100 -1,463 Descending Albuquerque Center
Mon 06:30:31 PM 32.6969 -104.8414 229° Southwest 429 494 28,300 -1,887 Descending Albuquerque Center
Mon 06:31:33 PM 32.6178 -104.9508 229° Southwest 435 501 26,200 -1,839 Descending Albuquerque Center
Mon 06:32:35 PM 32.5539 -105.0431 231° Southwest 427 491 24,500 -1,073 Descending Albuquerque Center
Mon 06:33:36 PM 32.4619 -105.1656 228° Southwest 417 480 24,000 -1,171 Descending Albuquerque Center
Mon 06:34:38 PM 32.3883 -105.2631 228° Southwest 406 467 22,100 -2,129 Descending Albuquerque Center
Mon 06:35:40 PM 32.3186 -105.3611 230° Southwest 395 455 19,600 -2,634 Descending Albuquerque Center
Mon 06:36:41 PM 32.2506 -105.4528 229° Southwest 379 436 16,700 -2,804 Descending Albuquerque Center
Mon 06:37:27 PM 32.1939 -105.5264 228° Southwest 356 410 14,600 -2,323 Descending Albuquerque Center
Mon 06:37:43 PM 32.1842 -105.5408 232° Southwest 367 422 14,300 -2,459 Descending Albuquerque Center
Mon 06:38:28 PM 32.1325 -105.6100 229° Southwest 331 381 12,100 -2,419 Descending Albuquerque Center
Mon 06:38:45 PM 32.1233 -105.6208 225° Southwest 337 388 11,800 -1,800 Descending Albuquerque Center
Mon 06:39:28 PM 32.0725 -105.6883 228° Southwest 324 373 10,300 -1,475 Descending Albuquerque Center
Mon 06:39:46 PM 32.0653 -105.6997 233° Southwest 323 372 10,300 -689 Level Albuquerque Center
Mon 06:40:29 PM 32.0231 -105.7561 229° Southwest 264 304 9,600 -774 Descending Albuquerque Center
Mon 06:40:48 PM 32.0061 -105.7786 228° Southwest 271 312 9,500 -556 Descending Albuquerque Center
Mon 06:41:23 PM 31.9811 -105.8172 233° Southwest 254 292 9,100 -387 Descending Albuquerque Center
Mon 06:41:50 PM 31.9650 -105.8469 237° Southwest 258 297 9,100 -98 Level Albuquerque Center
Mon 06:42:24 PM 31.9428 -105.8869 237° Southwest 250 288 9,000 -98 Descending Albuquerque Center
Mon 06:42:51 PM 31.9258 -105.9153 235° Southwest 256 295 9,000  Level Albuquerque Center
Mon 06:43:25 PM 31.9044 -105.9569 239° Southwest 257 296 9,000  Level Albuquerque Center
Mon 06:43:53 PM 31.8867 -105.9847 233° Southwest 256 295 9,000 -700 Level Albuquerque Center
Mon 06:44:25 PM 31.8656 -106.0244 238° Southwest 245 282 8,300 -677 Descending Albuquerque Center
Mon 06:44:55 PM 31.8544 -106.0528 245° Southwest 242 278 8,300 -492 Level Albuquerque Center
Mon 06:45:26 PM 31.8428 -106.0978 253° West 215 247 7,800 -590 Descending Albuquerque Center
Mon 06:45:56 PM 31.8367 -106.1200 252° West 220 253 7,700 -627 Descending Albuquerque Center
Mon 06:46:33 PM 31.8172 -106.1692 245° Southwest 214 246 7,100 -677 Descending Albuquerque Center
Mon 06:46:58 PM 31.8117 -106.1836 246° West 216 249 7,000 -600 Descending Albuquerque Center
Mon 06:47:33 PM 31.7983 -106.2289 251° West 196 226 6,500 -1,161 Descending Albuquerque Center
Mon 06:48:00 PM 31.7950 -106.2539 261° West 186 214 5,800 -1,082 Descending Albuquerque Center
Mon 06:48:34 PM 31.7972 -106.2817 275° West 150 173 5,400 -689 Descending Albuquerque Center
Mon 06:49:01 PM 31.7981 -106.3019 273° West 151 174 5,100 -900 Descending Albuquerque Center
Mon 06:49:34 PM 31.7994 -106.3286 274° West 134 154 4,500 -871 Descending Albuquerque Center
Mon 06:50:03 PM 31.8000 -106.3472 272° West 141 162 4,200 -621 Descending Albuquerque Center
Mon 06:52:00 PM 31.8000 -106.3667 264° West  Level FlightAware Approximate
Mon 06:59:00 PM 31.8072 -106.3764 264° West  Level Estimated
Mon 07:00:00 PM 31.8072 -106.3764 264° West  Level Estimated
Mon 07:01:00 PM 31.8072 -106.3764 264° West  Level Estimated
Mon 07:02:00 PM 31.8072 -106.3764 264° West  Level Estimated

Login

Don't have an account? Register now (free) for customized features, flight alerts, and more!